Time;durP1;ratioP1;P1;durP2;ratioP2;P2;SDS_P1;SDS_P2;PMS_P1;PMS_P2;Temp;Humidity;BMP_temperature;BMP_pressure;BME280_temperature;BME280_humidity;BME280_pressure;Samples;Min_cycle;Max_cycle;Signal;HPM_P1;HPM_P2
2022/07/07 00:02:16;;;;;;;20.10;8.00;;;;;;;17.36;77.74;101887.22;5065938;28;20024;-80
2022/07/07 00:04:42;;;;;;;20.13;7.25;;;;;;;17.36;77.85;101889.94;5071593;28;20036;-80
2022/07/07 00:07:07;;;;;;;16.83;6.70;;;;;;;17.35;77.56;101880.94;5075436;28;20100;-80
2022/07/07 00:09:33;;;;;;;20.50;7.10;;;;;;;17.36;77.55;101879.06;5069601;28;20036;-81
2022/07/07 00:11:58;;;;;;;19.13;7.38;;;;;;;17.35;77.71;101880.94;5072129;28;20064;-80
2022/07/07 00:14:24;;;;;;;20.50;7.35;;;;;;;17.34;77.93;101872.94;5071761;28;20031;-80
2022/07/07 00:16:49;;;;;;;18.40;7.03;;;;;;;17.35;77.76;101883.66;5072589;28;20024;-80
2022/07/07 00:19:15;;;;;;;21.13;8.38;;;;;;;17.36;77.54;101879.06;5064844;28;20040;-80
2022/07/07 00:21:41;;;;;;;20.13;6.95;;;;;;;17.36;77.67;101879.94;5076435;28;20565;-79
2022/07/07 00:24:06;;;;;;;21.10;7.78;;;;;;;17.36;77.65;101879.94;5071246;28;20028;-80
2022/07/07 00:26:32;;;;;;;19.58;6.57;;;;;;;17.36;77.75;101868.22;5066898;28;20495;-80
2022/07/07 00:28:58;;;;;;;20.98;6.57;;;;;;;17.38;77.61;101866.22;5070863;28;20082;-80
2022/07/07 00:31:24;;;;;;;16.90;6.45;;;;;;;17.38;77.81;101860.78;5071729;28;20063;-80
2022/07/07 00:33:50;;;;;;;17.70;6.47;;;;;;;17.37;77.58;101851.78;5074893;28;20028;-80
2022/07/07 00:36:15;;;;;;;17.95;5.88;;;;;;;17.37;77.39;101848.19;5074126;28;20131;-80
2022/07/07 00:38:40;;;;;;;16.65;6.28;;;;;;;17.35;77.84;101834.75;5071983;28;20024;-80
2022/07/07 00:41:06;;;;;;;17.85;6.57;;;;;;;17.35;77.90;101842.91;5058404;28;20486;-80
2022/07/07 00:43:39;;;;;;;17.50;6.13;;;;;;;17.35;77.55;101839.31;5062055;28;20032;-80
2022/07/07 00:46:04;;;;;;;16.58;5.85;;;;;;;17.36;77.63;101833.72;5073914;28;20021;-80
2022/07/07 00:48:33;;;;;;;17.92;6.15;;;;;;;17.37;77.86;101837.34;5071648;28;20032;-80
2022/07/07 00:50:59;;;;;;;16.63;6.22;;;;;;;17.38;77.90;101834.47;5076865;28;20104;-80
2022/07/07 00:53:24;;;;;;;14.85;5.35;;;;;;;17.38;77.99;101834.47;5073888;28;20107;-79
2022/07/07 00:55:50;;;;;;;18.38;5.82;;;;;;;17.38;78.02;101828.16;5072265;28;20020;-80
2022/07/07 00:58:15;;;;;;;15.85;5.78;;;;;;;17.36;78.42;101831.00;5070472;28;20124;-80
2022/07/07 01:00:41;;;;;;;15.32;6.07;;;;;;;17.36;77.76;101820.16;5069731;28;20077;-80
2022/07/07 01:03:08;;;;;;;15.07;6.03;;;;;;;17.37;78.13;101827.31;5072183;28;20028;-79
2022/07/07 01:05:35;;;;;;;15.68;5.90;;;;;;;17.39;78.27;101824.47;5071589;28;20033;-80
2022/07/07 01:08:03;;;;;;;16.45;5.68;;;;;;;17.39;78.06;101828.03;5070264;28;20039;-80
2022/07/07 01:10:28;;;;;;;17.80;5.85;;;;;;;17.38;78.34;101826.31;5065906;28;20024;-80
2022/07/07 01:12:53;;;;;;;16.23;6.03;;;;;;;17.38;78.36;101828.16;5071804;28;20063;-82
2022/07/07 01:15:19;;;;;;;15.95;5.47;;;;;;;17.39;78.17;101824.47;5071886;28;20487;-81
2022/07/07 01:17:44;;;;;;;18.95;6.47;;;;;;;17.38;78.08;101823.59;5072069;28;20103;-80
2022/07/07 01:20:10;;;;;;;16.77;5.72;;;;;;;17.38;78.52;101822.72;5072869;28;20028;-81
2022/07/07 01:22:38;;;;;;;18.63;6.30;;;;;;;17.38;78.58;101818.19;5075412;28;20115;-80
2022/07/07 01:25:07;;;;;;;16.42;5.75;;;;;;;17.39;78.01;101816.31;5068821;28;20020;-81
2022/07/07 01:27:32;;;;;;;16.30;5.90;;;;;;;17.40;78.26;101820.75;5082325;28;20562;-80
2022/07/07 01:29:58;;;;;;;20.13;6.10;;;;;;;17.39;78.48;101822.59;5072381;28;20033;-80
2022/07/07 01:32:25;;;;;;;16.45;5.60;;;;;;;17.40;78.33;101816.16;5072007;28;20021;-80
2022/07/07 01:34:51;;;;;;;17.13;5.50;;;;;;;17.42;78.28;101818.75;5073342;28;20425;-81
2022/07/07 01:37:18;;;;;;;15.90;6.18;;;;;;;17.43;78.76;101809.63;5070019;28;20024;-80
2022/07/07 01:39:43;;;;;;;14.88;5.35;;;;;;;17.42;78.86;101802.44;5071437;28;20424;-80
2022/07/07 01:42:10;;;;;;;16.92;5.85;;;;;;;17.43;78.64;101804.19;5071451;28;20024;-81
2022/07/07 01:44:38;;;;;;;16.77;6.00;;;;;;;17.41;78.69;101804.31;5072706;28;20024;-80
2022/07/07 01:47:04;;;;;;;17.52;6.25;;;;;;;17.41;79.09;101793.44;5068439;28;20129;-81
2022/07/07 01:49:31;;;;;;;17.13;6.30;;;;;;;17.38;79.21;101798.28;5069047;28;20182;-80
2022/07/07 01:51:57;;;;;;;18.90;6.90;;;;;;;17.39;79.47;101794.56;5076434;28;20032;-80
2022/07/07 01:54:22;;;;;;;16.08;5.72;;;;;;;17.40;79.48;101794.44;5070211;28;20025;-80
2022/07/07 01:56:47;;;;;;;16.02;5.70;;;;;;;17.41;79.57;101796.16;5071767;28;20024;-80
2022/07/07 01:59:13;;;;;;;17.85;6.18;;;;;;;17.42;79.42;101792.47;5068707;28;20028;-81
2022/07/07 02:01:39;;;;;;;18.17;6.03;;;;;;;17.40;79.70;101794.44;5071115;28;20442;-81
2022/07/07 02:04:04;;;;;;;16.90;6.07;;;;;;;17.42;79.85;101800.63;5072291;28;20032;-81
2022/07/07 02:06:30;;;;;;;15.90;5.60;;;;;;;17.42;79.43;101792.47;5072576;28;20021;-81
2022/07/07 02:08:55;;;;;;;16.25;5.82;;;;;;;17.41;79.79;101792.56;5059733;28;20029;-81
2022/07/07 02:11:20;;;;;;;13.85;5.53;;;;;;;17.42;80.07;101797.91;5069838;28;20017;-80
2022/07/07 02:13:48;;;;;;;17.83;6.32;;;;;;;17.42;80.11;101792.47;5072016;28;20036;-81
2022/07/07 02:16:15;;;;;;;16.83;5.75;;;;;;;17.43;80.27;101794.16;5071539;28;20460;-81
2022/07/07 02:18:42;;;;;;;17.63;5.43;;;;;;;17.44;80.27;101784.19;5072749;28;20727;-81
2022/07/07 02:21:09;;;;;;;15.65;5.15;;;;;;;17.44;80.64;101787.75;5077777;28;20484;-81
2022/07/07 02:23:35;;;;;;;13.35;4.85;;;;;;;17.44;80.15;101782.31;5071607;28;20020;-82
2022/07/07 02:26:01;;;;;;;17.45;4.80;;;;;;;17.43;80.39;101783.28;5087399;28;20032;-81
2022/07/07 02:28:27;;;;;;;17.13;4.85;;;;;;;17.43;80.54;101788.72;5070066;28;20476;-81
2022/07/07 02:30:53;;;;;;;13.68;4.57;;;;;;;17.46;80.82;101782.16;5086027;28;20028;-81
2022/07/07 02:33:19;;;;;;;19.85;5.28;;;;;;;17.47;81.04;101783.91;5070989;28;20486;-80
2022/07/07 02:35:45;;;;;;;14.05;5.03;;;;;;;17.47;80.54;101784.75;5070302;28;20036;-81
2022/07/07 02:38:10;;;;;;;19.05;5.25;;;;;;;17.49;81.11;101781.91;5071859;28;20420;-80
2022/07/07 02:40:35;;;;;;;14.85;4.63;;;;;;;17.50;81.02;101785.47;5069291;28;20400;-81
2022/07/07 02:43:01;;;;;;;14.38;5.18;;;;;;;17.49;81.24;101776.47;5069709;28;20029;-80
2022/07/07 02:45:26;;;;;;;14.48;4.80;;;;;;;17.50;81.09;101780.03;5068591;28;20150;-81
2022/07/07 02:47:52;;;;;;;13.70;4.72;;;;;;;17.51;80.96;101779.03;5071292;28;20031;-80
2022/07/07 02:50:17;;;;;;;14.98;4.25;;;;;;;17.50;80.51;101772.75;5085778;28;20143;-81
2022/07/07 02:52:42;;;;;;;11.98;3.92;;;;;;;17.50;80.81;101769.16;5071704;28;20108;-80
2022/07/07 02:55:08;;;;;;;10.02;3.85;;;;;;;17.51;80.80;101776.31;5071226;28;20244;-81
2022/07/07 02:57:33;;;;;;;15.90;4.88;;;;;;;17.51;81.24;101777.19;5069440;28;20503;-81
2022/07/07 02:59:59;;;;;;;13.90;4.32;;;;;;;17.50;81.33;101783.63;5065305;28;20051;-81
2022/07/07 03:02:24;;;;;;;15.68;4.60;;;;;;;17.50;81.09;101789.06;5071507;28;20027;-81
2022/07/07 03:04:50;;;;;;;17.35;4.55;;;;;;;17.52;81.39;101772.63;5069676;28;20468;-80
2022/07/07 03:07:15;;;;;;;16.27;4.88;;;;;;;17.50;81.73;101777.31;5069395;28;20449;-81
2022/07/07 03:09:40;;;;;;;12.88;4.32;;;;;;;17.52;82.06;101783.50;5068455;28;20093;-81
2022/07/07 03:12:06;;;;;;;14.15;4.65;;;;;;;17.50;82.22;101780.91;5073549;28;20048;-81
2022/07/07 03:14:31;;;;;;;15.80;5.25;;;;;;;17.50;82.81;101788.19;5070124;28;20036;-81
2022/07/07 03:16:56;;;;;;;17.38;5.32;;;;;;;17.50;83.58;101799.94;5069652;28;20040;-81
2022/07/07 03:19:22;;;;;;;11.68;3.75;;;;;;;17.49;81.78;101791.91;5061901;28;20035;-81
2022/07/07 03:21:47;;;;;;;13.00;3.75;;;;;;;17.42;82.92;101789.75;5087684;28;20027;-81
2022/07/07 03:24:12;;;;;;;9.77;3.78;;;;;;;17.40;82.52;101794.44;5091603;28;20118;-80
2022/07/07 03:26:38;;;;;;;10.57;3.53;;;;;;;17.35;81.90;101788.56;5067937;28;20017;-80
2022/07/07 03:29:03;;;;;;;9.48;3.25;;;;;;;17.33;82.26;101792.41;5068904;28;20028;-81
2022/07/07 03:31:29;;;;;;;10.27;3.35;;;;;;;17.30;82.57;101782.66;5057639;28;20029;-81
2022/07/07 03:33:54;;;;;;;6.32;2.85;;;;;;;17.28;81.77;101798.25;5069380;28;20111;-81
2022/07/07 03:36:19;;;;;;;8.90;3.20;;;;;;;17.25;83.16;101799.34;5070906;28;20499;-81
2022/07/07 03:38:45;;;;;;;14.68;3.80;;;;;;;17.18;85.67;101806.31;5068835;28;20392;-80
2022/07/07 03:41:10;;;;;;;10.38;3.45;;;;;;;17.09;85.79;101812.53;5059612;28;20040;-82
2022/07/07 03:43:36;;;;;;;7.72;3.17;;;;;;;17.01;85.87;101812.31;5069322;28;20031;-82
2022/07/07 03:46:01;;;;;;;10.40;3.67;;;;;;;16.98;86.97;101804.44;5071851;28;20115;-82
2022/07/07 03:48:29;;;;;;;10.73;3.63;;;;;;;16.92;87.24;101797.69;5064812;28;20115;-82
2022/07/07 03:50:54;;;;;;;10.32;3.90;;;;;;;16.90;88.09;101802.41;5093016;28;20038;-82
2022/07/07 03:53:20;;;;;;;9.27;3.60;;;;;;;16.83;87.81;101799.28;5077120;28;20028;-82
2022/07/07 03:55:45;;;;;;;12.07;4.40;;;;;;;16.82;88.56;101799.44;5071834;28;20135;-82
2022/07/07 03:58:10;;;;;;;11.75;4.07;;;;;;;16.74;89.29;101797.38;5070119;28;20491;-82
2022/07/07 04:00:36;;;;;;;7.93;3.55;;;;;;;16.68;89.28;101797.91;5068800;28;20098;-82
2022/07/07 04:03:01;;;;;;;10.82;4.40;;;;;;;16.61;89.62;101802.97;5062818;28;20033;-82
2022/07/07 04:05:26;;;;;;;12.68;4.10;;;;;;;16.57;90.06;101793.34;5065771;28;20060;-82
2022/07/07 04:07:51;;;;;;;10.40;3.83;;;;;;;16.51;89.98;101791.16;5080366;28;20096;-82
2022/07/07 04:10:17;;;;;;;8.70;3.53;;;;;;;16.43;90.87;101795.38;5069849;28;20024;-82
2022/07/07 04:12:42;;;;;;;11.68;4.70;;;;;;;16.38;91.25;101785.88;5071648;28;20041;-82
2022/07/07 04:15:08;;;;;;;15.60;5.03;;;;;;;16.34;91.38;101773.56;5070389;28;20048;-82
2022/07/07 04:17:33;;;;;;;11.30;4.70;;;;;;;16.35;91.58;101765.28;5068043;28;20109;-82
2022/07/07 04:19:59;;;;;;;14.90;4.97;;;;;;;16.33;92.37;101764.56;5058484;28;20045;-82
2022/07/07 04:22:25;;;;;;;13.63;4.70;;;;;;;16.35;92.15;101769.88;5082975;28;20442;-82
2022/07/07 04:24:50;;;;;;;18.95;4.55;;;;;;;16.35;92.23;101776.13;5066530;28;20522;-82
2022/07/07 04:27:15;;;;;;;12.68;4.55;;;;;;;16.36;92.93;101774.31;5069607;28;20043;-82
2022/07/07 04:29:41;;;;;;;12.15;4.30;;;;;;;16.33;92.79;101770.00;5068695;28;20036;-82
2022/07/07 04:32:07;;;;;;;11.68;4.22;;;;;;;16.34;92.98;101773.56;5070429;28;20024;-82
2022/07/07 04:34:32;;;;;;;10.48;3.80;;;;;;;16.32;92.72;101770.97;5070688;28;20058;-82
2022/07/07 04:36:58;;;;;;;13.13;4.55;;;;;;;16.34;93.39;101773.56;5070912;28;20036;-82
2022/07/07 04:39:23;;;;;;;8.50;3.58;;;;;;;16.35;92.83;101780.72;5067721;28;20028;-82
2022/07/07 04:41:49;;;;;;;13.90;4.90;;;;;;;16.34;92.86;101789.84;5085199;28;20367;-82
2022/07/07 04:44:14;;;;;;;10.27;3.70;;;;;;;16.33;92.97;101794.41;5069867;28;20033;-82
2022/07/07 04:46:39;;;;;;;12.48;4.38;;;;;;;16.32;92.62;101808.94;5070101;28;20033;-82
2022/07/07 04:49:04;;;;;;;13.02;4.05;;;;;;;16.34;92.62;101807.00;5067475;28;20399;-82
2022/07/07 04:51:30;;;;;;;12.02;3.47;;;;;;;16.34;92.96;101812.41;5073824;28;20160;-83
2022/07/07 04:53:55;;;;;;;7.25;3.10;;;;;;;16.35;91.41;101816.84;5071767;28;20031;-82
2022/07/07 04:56:21;;;;;;;9.88;3.75;;;;;;;16.36;91.80;101812.28;5070456;28;20490;-82
2022/07/07 04:58:46;;;;;;;8.43;2.85;;;;;;;16.37;91.44;101817.59;5072693;28;20215;-82
2022/07/07 05:01:11;;;;;;;8.95;3.40;;;;;;;16.38;91.83;101819.31;5070367;28;20032;-82
2022/07/07 05:03:37;;;;;;;8.68;2.72;;;;;;;16.39;90.55;101817.47;5071388;28;20036;-82
2022/07/07 05:06:02;;;;;;;7.07;2.50;;;;;;;16.42;92.13;101820.78;5089780;28;20037;-82
2022/07/07 05:08:29;;;;;;;9.70;3.05;;;;;;;16.40;91.01;101824.63;5055758;28;20025;-82
2022/07/07 05:10:55;;;;;;;7.13;2.17;;;;;;;16.41;91.60;101831.75;5072864;28;20063;-83
2022/07/07 05:13:20;;;;;;;7.45;2.55;;;;;;;16.41;90.87;101829.03;5071957;28;20040;-82
2022/07/07 05:15:45;;;;;;;5.70;2.42;;;;;;;16.37;91.18;101831.16;5068309;28;20115;-82
2022/07/07 05:18:11;;;;;;;4.38;2.15;;;;;;;16.35;91.47;101846.69;5071702;28;20476;-82
2022/07/07 05:20:36;;;;;;;8.27;2.50;;;;;;;16.34;91.70;101844.97;5072466;28;20024;-82
2022/07/07 05:23:02;;;;;;;6.78;2.67;;;;;;;16.32;90.97;101841.50;5071289;28;20454;-82
2022/07/07 05:25:27;;;;;;;5.90;2.40;;;;;;;16.28;91.15;101848.16;5066617;28;20534;-82
2022/07/07 05:27:53;;;;;;;6.35;2.45;;;;;;;16.30;91.14;101848.06;5071584;28;20753;-82
2022/07/07 05:30:19;;;;;;;7.82;2.33;;;;;;;16.26;90.33;101855.56;5069195;28;20456;-82
2022/07/07 05:32:44;;;;;;;7.63;2.20;;;;;;;16.24;91.67;101849.44;5064340;28;20032;-82
2022/07/07 05:35:10;;;;;;;10.82;2.58;;;;;;;16.26;92.24;101861.00;5056139;28;20032;-82
2022/07/07 05:37:35;;;;;;;8.02;2.40;;;;;;;16.30;92.65;101846.22;5073429;28;20024;-82
2022/07/07 05:40:00;;;;;;;9.30;3.00;;;;;;;16.35;92.49;101853.97;5071146;28;20067;-82
2022/07/07 05:42:26;;;;;;;5.32;2.47;;;;;;;16.36;90.93;101861.13;5082215;28;20029;-82
2022/07/07 05:44:51;;;;;;;8.20;2.50;;;;;;;16.40;92.28;101854.47;5071038;28;20037;-82
2022/07/07 05:47:16;;;;;;;7.97;2.47;;;;;;;16.45;92.06;101862.22;5070859;28;20029;-82
2022/07/07 05:49:42;;;;;;;12.68;2.70;;;;;;;16.47;91.11;101865.66;5070627;28;20035;-82
2022/07/07 05:52:07;;;;;;;8.32;2.33;;;;;;;16.50;90.97;101871.72;5075544;28;20056;-82
2022/07/07 05:54:32;;;;;;;11.07;2.95;;;;;;;16.54;90.38;101885.88;5071342;28;20036;-81
2022/07/07 05:56:58;;;;;;;13.25;2.65;;;;;;;16.55;90.85;101884.91;5073291;28;20032;-82
2022/07/07 05:59:23;;;;;;;11.45;3.25;;;;;;;16.56;90.50;101892.03;5068406;28;20032;-82
2022/07/07 06:01:48;;;;;;;11.85;2.80;;;;;;;16.56;88.70;101889.31;5068737;28;20047;-84
2022/07/07 06:04:14;;;;;;;10.00;2.65;;;;;;;16.59;90.40;101892.66;5065028;28;20029;-81
2022/07/07 06:06:39;;;;;;;5.50;2.13;;;;;;;16.59;91.11;101900.78;5066330;28;20032;-82
2022/07/07 06:09:04;;;;;;;6.93;2.50;;;;;;;16.62;91.39;101904.22;5064864;28;20025;-83
2022/07/07 06:11:30;;;;;;;6.07;1.90;;;;;;;16.58;91.55;101912.63;5063265;28;20101;-82
2022/07/07 06:13:55;;;;;;;10.35;2.30;;;;;;;16.57;91.22;101916.34;5069452;28;20108;-81
2022/07/07 06:16:38;;;;;;;12.85;2.55;;;;;;;16.58;89.90;101914.50;5070255;28;20119;-82
2022/07/07 06:19:12;;;;;;;9.05;2.70;;;;;;;16.57;89.79;101926.31;5071418;28;20052;-82
2022/07/07 06:21:38;;;;;;;8.07;2.10;;;;;;;16.58;90.44;101945.19;5070678;28;20028;-82
2022/07/07 06:24:04;;;;;;;9.60;2.53;;;;;;;16.58;88.63;101938.91;5071034;28;20024;-82
2022/07/07 06:26:30;;;;;;;7.55;2.03;;;;;;;16.58;88.47;101947.06;5071257;28;20039;-82
2022/07/07 06:28:55;;;;;;;9.73;2.55;;;;;;;16.58;87.40;101952.50;5069351;28;20131;-82
2022/07/07 06:31:20;;;;;;;15.88;2.55;;;;;;;16.61;84.27;101949.53;5068746;28;20024;-82
2022/07/07 06:33:46;;;;;;;11.70;2.10;;;;;;;16.57;85.39;101942.63;5060756;28;20035;-81
2022/07/07 06:36:11;;;;;;;16.27;2.78;;;;;;;16.59;84.90;101946.09;5070309;28;20043;-81
2022/07/07 06:38:36;;;;;;;8.00;2.20;;;;;;;16.60;83.57;101948.66;5069628;28;20492;-81
2022/07/07 06:41:02;;;;;;;12.98;2.47;;;;;;;16.62;84.60;101943.13;5070728;28;20027;-81
2022/07/07 06:43:28;;;;;;;9.95;2.72;;;;;;;16.67;84.31;101951.72;5068297;28;20025;-80
2022/07/07 06:45:53;;;;;;;10.02;2.13;;;;;;;16.74;82.55;101961.09;5065641;28;20495;-81
2022/07/07 06:48:18;;;;;;;7.18;2.08;;;;;;;16.81;83.16;101971.44;5070809;28;20113;-82
2022/07/07 06:50:44;;;;;;;16.25;2.30;;;;;;;16.84;81.54;101972.06;5074869;28;20131;-80
2022/07/07 06:53:10;;;;;;;6.88;1.95;;;;;;;16.87;79.85;101976.41;5075266;28;20036;-81
2022/07/07 06:55:35;;;;;;;13.73;3.10;;;;;;;16.82;82.58;101992.19;5074139;28;20507;-81
2022/07/07 06:58:02;;;;;;;5.05;1.83;;;;;;;16.78;82.04;102005.16;5073390;28;20032;-81
2022/07/07 07:00:28;;;;;;;14.05;2.53;;;;;;;16.72;83.07;101990.25;5071258;28;20050;-81
2022/07/07 07:02:53;;;;;;;8.40;2.13;;;;;;;16.63;84.26;101996.38;5071242;28;20084;-82
2022/07/07 07:05:18;;;;;;;10.38;2.08;;;;;;;16.64;84.69;101987.28;5067059;28;20028;-81
2022/07/07 07:07:43;;;;;;;9.40;1.85;;;;;;;16.66;84.14;101996.16;5087301;28;20448;-81
2022/07/07 07:10:09;;;;;;;8.63;2.08;;;;;;;16.68;83.44;101983.31;5077296;28;20111;-81
2022/07/07 07:12:34;;;;;;;9.30;2.28;;;;;;;16.75;82.92;101983.66;5079657;28;20040;-82
2022/07/07 07:15:00;;;;;;;12.43;2.00;;;;;;;16.77;82.35;101989.84;5075373;28;20472;-81
2022/07/07 07:17:25;;;;;;;10.85;1.73;;;;;;;16.82;80.39;101998.47;5085511;28;20024;-81
2022/07/07 07:19:51;;;;;;;13.27;2.83;;;;;;;16.80;80.56;101989.59;5073461;28;20024;-81
2022/07/07 07:22:16;;;;;;;5.45;2.08;;;;;;;16.87;82.34;101992.69;5076382;28;20043;-81
2022/07/07 07:24:41;;;;;;;13.10;2.35;;;;;;;16.91;80.92;101999.59;5071783;28;20084;-81
2022/07/07 07:27:07;;;;;;;5.60;1.75;;;;;;;16.96;82.14;101997.38;5075944;28;20036;-81
2022/07/07 07:29:32;;;;;;;7.50;1.95;;;;;;;17.01;81.39;101995.13;5081747;28;20036;-81
2022/07/07 07:31:58;;;;;;;7.90;2.13;;;;;;;17.06;80.60;101998.34;5075796;28;20049;-80
2022/07/07 07:34:23;;;;;;;6.07;1.63;;;;;;;17.12;78.06;102007.84;5075861;28;20036;-81
2022/07/07 07:36:48;;;;;;;8.55;2.45;;;;;;;17.20;78.67;102004.50;5077679;28;20278;-80
2022/07/07 07:39:13;;;;;;;14.68;2.90;;;;;;;17.21;79.04;102009.78;5075610;28;20164;-81
2022/07/07 07:41:39;;;;;;;11.13;2.30;;;;;;;17.25;80.01;102008.56;5079011;28;20035;-81
2022/07/07 07:44:04;;;;;;;10.18;2.65;;;;;;;17.28;79.71;102021.03;5078921;28;20047;-81
2022/07/07 07:46:30;;;;;;;7.95;2.28;;;;;;;17.30;77.73;102016.31;5080365;28;20032;-80
2022/07/07 07:48:55;;;;;;;12.60;2.85;;;;;;;17.28;77.91;102024.59;5075580;28;20400;-80
2022/07/07 07:51:20;;;;;;;7.88;2.45;;;;;;;17.28;77.81;102040.06;5084268;28;20028;-81
2022/07/07 07:53:46;;;;;;;11.20;2.28;;;;;;;17.29;78.13;102028.16;5079452;28;20079;-81
2022/07/07 07:56:11;;;;;;;10.85;1.98;;;;;;;17.24;78.23;102038.56;5079032;28;20032;-81
2022/07/07 07:58:37;;;;;;;11.38;2.53;;;;;;;17.19;79.39;102057.09;5072627;28;20020;-81
2022/07/07 08:01:03;;;;;;;11.25;2.90;;;;;;;17.07;82.25;102065.28;5073934;28;20021;-83
2022/07/07 08:03:28;;;;;;;8.55;2.00;;;;;;;16.98;82.01;102057.84;5068618;28;20059;-82
2022/07/07 08:05:53;;;;;;;10.10;1.77;;;;;;;16.93;81.83;102047.38;5073804;28;20114;-82
2022/07/07 08:08:19;;;;;;;7.68;1.92;;;;;;;16.85;82.31;102043.53;5079273;28;20033;-82
2022/07/07 08:10:44;;;;;;;13.45;2.03;;;;;;;16.76;83.01;102039.69;5075979;28;20062;-81
2022/07/07 08:13:09;;;;;;;10.65;2.22;;;;;;;16.77;84.58;102053.16;5075195;28;20078;-82
2022/07/07 08:15:35;;;;;;;9.63;2.15;;;;;;;16.76;82.95;102053.28;5073693;28;20039;-81
2022/07/07 08:18:00;;;;;;;5.35;1.83;;;;;;;16.83;83.12;102057.22;5081021;28;20024;-82
2022/07/07 08:20:26;;;;;;;11.40;2.05;;;;;;;16.88;83.11;102062.31;5076277;28;20043;-82
2022/07/07 08:22:51;;;;;;;16.20;2.80;;;;;;;16.86;81.09;102061.56;5073700;28;20029;-82
2022/07/07 08:25:17;;;;;;;9.45;2.45;;;;;;;16.96;85.31;102061.72;5083299;28;20490;-81
2022/07/07 08:27:42;;;;;;;12.18;2.60;;;;;;;17.04;84.13;102056.50;5084409;28;20040;-82
2022/07/07 08:30:08;;;;;;;10.45;2.28;;;;;;;17.15;81.32;102055.63;5082378;28;20092;-81
2022/07/07 08:32:33;;;;;;;8.15;2.08;;;;;;;17.22;82.22;102062.25;5080705;28;20153;-81
2022/07/07 08:34:59;;;;;;;5.80;2.35;;;;;;;17.25;82.79;102068.31;5087620;28;20031;-81
2022/07/07 08:37:24;;;;;;;5.22;2.08;;;;;;;17.28;80.73;102072.66;5080923;28;20024;-81
2022/07/07 08:39:50;;;;;;;9.82;2.25;;;;;;;17.28;80.39;102072.66;5076011;28;20114;-81
2022/07/07 08:42:16;;;;;;;8.75;1.92;;;;;;;17.19;77.79;102067.97;5077420;28;20386;-87
2022/07/07 08:44:42;;;;;;;8.48;1.90;;;;;;;17.18;78.32;102077.13;5079913;28;20024;-80
2022/07/07 08:47:07;;;;;;;6.78;2.33;;;;;;;17.14;79.41;102070.19;5082297;28;20023;-80
2022/07/07 08:49:33;;;;;;;8.63;1.83;;;;;;;17.14;78.76;102078.34;5080710;28;20059;-81
2022/07/07 08:51:58;;;;;;;11.90;2.75;;;;;;;17.18;78.99;102072.53;5086481;28;20024;-81
2022/07/07 08:54:26;;;;;;;12.48;2.30;;;;;;;17.33;80.99;102073.13;5080988;28;20027;-81
2022/07/07 08:56:51;;;;;;;5.82;1.98;;;;;;;17.43;77.83;102073.22;5086088;28;20105;-81
2022/07/07 08:59:18;;;;;;;7.30;2.25;;;;;;;17.46;78.35;102075.69;5085832;28;20127;-82
2022/07/07 09:01:56;;;;;;;6.80;1.90;;;;;;;17.49;78.98;102080.00;5078023;28;20040;-83
2022/07/07 09:04:23;;;;;;;5.83;1.80;;;;;;;17.46;78.42;102084.69;5070125;28;20027;-82
2022/07/07 09:06:53;;;;;;;7.88;2.03;;;;;;;17.41;78.04;102102.38;5077272;28;20047;-84
2022/07/07 09:09:49;;;;;;;11.93;2.35;;;;;;;17.36;78.19;102100.03;5079573;28;20031;-83
2022/07/07 09:12:16;;;;;;;12.50;2.72;;;;;;;17.33;79.90;102108.44;5081456;28;20052;-84
2022/07/07 09:14:52;;;;;;;6.97;1.88;;;;;;;17.34;78.90;102103.91;5087386;28;20035;-82
2022/07/07 09:17:33;;;;;;;16.48;2.70;;;;;;;17.39;78.93;102101.66;5078471;28;20127;-81
2022/07/07 09:20:12;;;;;;;8.63;2.03;;;;;;;17.46;78.49;102097.44;5082036;28;20024;-81
2022/07/07 09:22:48;;;;;;;5.90;1.52;;;;;;;17.48;79.10;102106.31;5074075;28;20048;-81
2022/07/07 09:25:16;;;;;;;10.77;2.30;;;;;;;17.53;77.25;102109.53;5075994;28;20085;-82
2022/07/07 09:27:50;;;;;;;6.80;2.20;;;;;;;17.67;78.86;102105.63;5070526;28;20077;-80
2022/07/07 09:30:34;;;;;;;9.48;1.98;;;;;;;17.77;78.22;102113.91;5078952;28;20308;-80
2022/07/07 09:33:12;;;;;;;13.48;2.92;;;;;;;17.81;78.17;102105.34;5078690;28;20039;-82
2022/07/07 09:38:27;;;;;;;10.43;2.03;;;;;;;17.79;75.73;102118.22;5079705;28;20459;-77
2022/07/07 09:41:03;;;;;;;8.55;1.95;;;;;;;17.74;76.36;102122.31;5074184;28;20024;-81
2022/07/07 09:43:32;;;;;;;7.82;2.50;;;;;;;17.78;78.25;102119.22;5078395;28;20464;-81
2022/07/07 09:46:22;;;;;;;4.57;1.30;;;;;;;17.86;78.07;102132.16;5073471;28;20082;-81
2022/07/07 09:48:53;;;;;;;17.10;2.22;;;;;;;17.90;79.64;102140.97;5080305;28;20074;-80
2022/07/07 09:51:28;;;;;;;8.25;2.10;;;;;;;17.84;76.33;102145.03;5076171;28;20035;-81
2022/07/07 09:53:55;;;;;;;10.35;2.58;;;;;;;17.81;75.09;102154.31;5085683;28;20031;-81
2022/07/07 09:56:22;;;;;;;9.73;1.92;;;;;;;17.74;74.85;102165.81;5079430;28;20028;-81
2022/07/07 09:58:47;;;;;;;4.75;1.33;;;;;;;17.67;75.03;102170.03;5081567;28;20040;-82
2022/07/07 10:01:16;;;;;;;5.68;2.05;;;;;;;17.60;76.08;102183.25;5080174;28;20110;-83
2022/07/07 10:03:42;;;;;;;8.52;2.42;;;;;;;17.50;77.98;102174.13;5083441;28;20051;-80
2022/07/07 10:06:09;;;;;;;5.53;1.42;;;;;;;17.50;78.77;102185.91;5076003;28;20028;-83
2022/07/07 10:08:35;;;;;;;5.70;1.80;;;;;;;17.52;78.18;102183.03;5080676;28;20036;-82
2022/07/07 10:11:04;;;;;;;6.72;1.95;;;;;;;17.51;81.16;102184.91;5076141;28;20105;-82
2022/07/07 10:13:32;;;;;;;7.30;2.00;;;;;;;17.52;80.52;102188.47;5077847;28;20055;-82
2022/07/07 10:15:58;;;;;;;6.25;1.70;;;;;;;17.57;82.09;102178.06;5080170;28;20502;-81
2022/07/07 10:18:24;;;;;;;11.30;2.35;;;;;;;17.57;79.58;102183.53;5080155;28;20056;-83
2022/07/07 10:20:49;;;;;;;5.57;1.55;;;;;;;17.57;79.67;102186.22;5075636;28;20520;-82
2022/07/07 10:23:16;;;;;;;7.30;1.80;;;;;;;17.57;78.98;102191.66;5077081;28;20023;-83
2022/07/07 10:25:41;;;;;;;9.05;2.03;;;;;;;17.56;78.58;102198.97;5079709;28;20055;-82
2022/07/07 10:28:06;;;;;;;10.48;2.13;;;;;;;17.55;78.21;102193.66;5079591;28;20032;-82
2022/07/07 10:30:33;;;;;;;7.45;2.58;;;;;;;17.51;80.93;102198.50;5084537;28;20117;-83
2022/07/07 10:32:59;;;;;;;9.38;2.10;;;;;;;17.48;79.40;102209.59;5077869;28;20601;-83
2022/07/07 10:35:25;;;;;;;9.00;2.10;;;;;;;17.48;81.14;102206.88;5083262;28;20031;-84
2022/07/07 10:37:53;;;;;;;5.75;1.83;;;;;;;17.52;80.99;102211.09;5080699;28;20039;-82
2022/07/07 10:40:22;;;;;;;9.50;1.65;;;;;;;17.62;80.02;102211.22;5081496;28;20035;-82
2022/07/07 10:42:59;;;;;;;8.65;1.98;;;;;;;17.75;80.32;102205.63;5081055;28;20659;-82
2022/07/07 10:45:26;;;;;;;7.28;1.80;;;;;;;17.85;79.38;102216.59;5085852;28;20039;-82
2022/07/07 10:47:51;;;;;;;4.55;1.58;;;;;;;17.91;78.46;102207.97;5086308;28;20399;-82
2022/07/07 10:50:28;;;;;;;7.40;1.65;;;;;;;17.94;78.39;102221.31;5076299;28;20020;-82
2022/07/07 10:52:55;;;;;;;7.95;2.40;;;;;;;17.88;76.68;102229.94;5078410;28;20056;-82
2022/07/07 10:55:20;;;;;;;7.93;1.70;;;;;;;17.82;78.07;102234.91;5077469;28;20028;-83
2022/07/07 10:57:47;;;;;;;8.27;1.80;;;;;;;17.75;79.35;102232.81;5076991;28;20078;-82
2022/07/07 11:00:13;;;;;;;7.57;1.95;;;;;;;17.66;80.21;102239.88;5069234;28;20376;-82
2022/07/07 11:02:47;;;;;;;3.30;1.70;;;;;;;17.64;81.21;102242.72;5074356;28;20039;-82
2022/07/07 11:05:15;;;;;;;5.38;1.83;;;;;;;17.61;81.04;102242.97;5075060;28;20028;-83
2022/07/07 11:07:42;;;;;;;6.07;2.03;;;;;;;17.61;82.04;102250.25;5071787;28;20065;-82
2022/07/07 11:10:09;;;;;;;13.35;3.03;;;;;;;17.64;81.17;102252.72;5072549;28;20037;-81
2022/07/07 11:12:38;;;;;;;9.93;2.58;;;;;;;17.70;81.37;102248.63;5069806;28;20136;-82
2022/07/07 11:15:15;;;;;;;4.55;2.15;;;;;;;17.80;80.64;102258.66;5072410;28;20074;-82
2022/07/07 11:18:04;;;;;;;10.82;3.15;;;;;;;17.91;80.06;102256.94;5071071;28;20044;-82
2022/07/07 11:20:30;;;;;;;14.20;3.10;;;;;;;17.97;80.80;102260.00;5061592;28;20075;-82